Time;durP1;ratioP1;P1;durP2;ratioP2;P2;SDS_P1;SDS_P2;PMS_P1;PMS_P2;Temp;Humidity;BMP_temperature;BMP_pressure;BME280_temperature;BME280_humidity;BME280_pressure;Samples;Min_cycle;Max_cycle;Signal;HPM_P1;HPM_P2
2021/05/06 00:02:29;;;;;;;0.44;0.40;;;;;;;5.86;70.65;98858.97;2000986;79;20810;-69
2021/05/06 00:32:02;;;;;;;1.63;0.61;;;;;;;5.28;71.49;98863.72;2002021;80;26029;-69
2021/05/06 00:35:05;;;;;;;0.99;0.70;;;;;;;5.19;71.99;98866.19;2001516;81;20346;-69
2021/05/06 00:38:11;;;;;;;6.70;0.77;;;;;;;5.14;72.42;98855.88;2001512;81;20377;-69
2021/05/06 00:45:15;;;;;;;2.13;0.70;;;;;;;5.12;72.95;98852.44;2001438;81;20709;-71
2021/05/06 01:14:08;;;;;;;1.81;0.50;;;;;;;5.24;74.06;98829.38;2001744;81;20308;-69
2021/05/06 01:17:10;;;;;;;2.72;0.80;;;;;;;5.32;73.98;98827.72;2001121;78;20342;-69
2021/05/06 01:20:13;;;;;;;2.14;0.74;;;;;;;5.35;73.92;98824.28;1999578;81;20420;-70
2021/05/06 01:23:17;;;;;;;1.19;0.60;;;;;;;5.40;73.90;98830.38;2001444;81;20826;-69
2021/05/06 01:27:09;;;;;;;1.51;0.56;;;;;;;5.40;73.98;98831.22;2000944;81;20340;-70
2021/05/06 01:29:47;;;;;;;2.53;0.70;;;;;;;5.42;74.03;98832.09;1999794;81;20829;-69
2021/05/06 01:32:55;;;;;;;1.91;0.60;;;;;;;5.49;73.86;98825.25;2000966;79;23379;-69
2021/05/06 01:36:01;;;;;;;2.05;0.73;;;;;;;5.54;73.83;98833.88;2001099;81;20722;-70
2021/05/06 01:42:41;;;;;;;1.75;1.21;;;;;;;5.61;73.91;98838.22;1993332;81;20352;-69
2021/05/06 01:46:03;;;;;;;1.46;0.69;;;;;;;5.63;74.14;98833.94;2000144;78;21814;-70
2021/05/06 01:57:32;;;;;;;1.55;0.60;;;;;;;5.65;74.15;98832.22;1993033;81;20332;-70
2021/05/06 01:59:31;;;;;;;1.85;0.95;;;;;;;5.68;74.18;98818.50;2001506;81;20372;-70
2021/05/06 02:02:33;;;;;;;3.21;0.94;;;;;;;5.72;73.85;98836.56;2001199;79;20959;-70
2021/05/06 02:05:34;;;;;;;1.52;0.60;;;;;;;5.77;73.70;98831.47;2002713;81;20358;-70
2021/05/06 02:08:36;;;;;;;1.63;0.60;;;;;;;5.76;73.48;98828.03;2003387;81;20872;-70
2021/05/06 02:11:37;;;;;;;2.13;0.80;;;;;;;5.79;73.34;98826.31;2002184;81;20352;-70
2021/05/06 02:14:39;;;;;;;4.66;1.04;;;;;;;5.80;74.04;98826.31;2003170;81;20378;-70
2021/05/06 02:17:42;;;;;;;0.95;0.70;;;;;;;5.82;74.44;98821.16;2001566;78;21486;-70
2021/05/06 02:20:46;;;;;;;2.14;0.70;;;;;;;5.83;74.58;98815.16;2002311;80;20435;-70
2021/05/06 02:23:47;;;;;;;1.52;0.60;;;;;;;5.82;75.28;98808.28;2002626;81;20332;-70
2021/05/06 02:26:49;;;;;;;2.13;0.56;;;;;;;5.84;75.49;98811.72;2002606;81;20366;-70
2021/05/06 02:29:50;;;;;;;3.94;0.59;;;;;;;5.86;75.21;98797.13;2003141;81;20309;-70
2021/05/06 02:32:52;;;;;;;1.21;0.69;;;;;;;5.88;75.71;98798.00;2001532;79;20980;-70
2021/05/06 02:35:54;;;;;;;1.67;0.50;;;;;;;5.89;75.94;98798.00;2002594;81;21011;-70
2021/05/06 02:38:55;;;;;;;1.29;0.60;;;;;;;5.88;75.74;98798.00;2002359;81;20727;-70
2021/05/06 02:41:57;;;;;;;1.76;0.52;;;;;;;5.91;75.58;98793.75;2002988;81;20347;-70
2021/05/06 02:44:59;;;;;;;0.93;0.63;;;;;;;5.91;75.32;98791.19;2003781;81;20338;-70
2021/05/06 02:48:01;;;;;;;1.29;0.45;;;;;;;5.96;75.04;98792.06;1995422;79;21017;-70
2021/05/06 02:51:03;;;;;;;0.60;0.50;;;;;;;5.98;75.63;98795.53;1996029;81;20361;-71
2021/05/06 02:54:05;;;;;;;1.34;0.60;;;;;;;5.98;75.38;98799.81;1997485;81;20313;-71
2021/05/06 02:57:14;;;;;;;3.86;0.57;;;;;;;6.03;75.31;98790.38;1998682;81;20354;-72
2021/05/06 03:03:46;;;;;;;1.81;0.52;;;;;;;5.98;76.08;98782.63;2002516;81;20320;-72
2021/05/06 03:10:11;;;;;;;1.90;0.65;;;;;;;5.92;76.62;98779.16;2002403;81;20328;-72
2021/05/06 03:21:06;;;;;;;2.15;0.55;;;;;;;5.92;77.01;98780.00;2002519;81;20556;-72
2021/05/06 03:23:33;;;;;;;1.14;0.60;;;;;;;5.88;78.14;98777.41;2002646;81;21180;-72
2021/05/06 03:26:34;;;;;;;1.44;0.46;;;;;;;5.82;78.99;98772.22;2001728;81;20321;-73
2021/05/06 03:29:41;;;;;;;2.45;0.71;;;;;;;5.83;79.00;98763.63;2002182;81;20330;-74
2021/05/06 03:36:15;;;;;;;1.92;0.60;;;;;;;5.83;78.99;98751.63;2002086;81;20312;-74
2021/05/06 03:42:48;;;;;;;2.67;0.60;;;;;;;5.84;79.93;98743.03;2001780;81;20189;-73
2021/05/06 03:46:36;;;;;;;2.75;0.50;;;;;;;5.82;80.95;98739.59;2000667;79;22131;-72
2021/05/06 04:13:31;;;;;;;1.02;0.50;;;;;;;5.76;83.28;98731.84;2001406;81;20324;-73
2021/05/06 04:26:09;;;;;;;1.50;0.70;;;;;;;5.76;83.63;98729.28;2001556;81;20382;-72
2021/05/06 04:29:49;;;;;;;1.29;0.50;;;;;;;5.81;83.89;98718.97;2002021;81;20309;-72
2021/05/06 04:36:04;;;;;;;2.84;0.59;;;;;;;5.91;83.29;98719.03;2002267;81;20338;-71
2021/05/06 04:39:10;;;;;;;2.41;0.86;;;;;;;5.84;83.20;98717.28;2001653;81;20342;-72
2021/05/06 04:55:29;;;;;;;2.00;0.80;;;;;;;5.76;83.97;98722.41;2001463;81;20369;-74
2021/05/06 05:04:59;;;;;;;1.27;0.60;;;;;;;5.82;84.10;98731.00;2001798;81;20842;-75
2021/05/06 05:08:07;;;;;;;1.55;0.90;;;;;;;5.79;83.78;98737.00;2001193;81;20297;-74
2021/05/06 05:20:49;;;;;;;2.38;0.77;;;;;;;5.82;83.63;98738.75;2001591;81;20312;-73
2021/05/06 05:23:58;;;;;;;1.59;0.77;;;;;;;5.82;83.83;98742.16;2001768;81;20328;-73
2021/05/06 05:26:59;;;;;;;1.59;0.70;;;;;;;5.83;83.92;98740.47;2000911;81;20712;-73
2021/05/06 05:30:01;;;;;;;1.49;0.82;;;;;;;5.82;84.13;98737.03;2000754;81;20177;-72
2021/05/06 05:33:16;;;;;;;3.91;0.70;;;;;;;5.83;84.33;98736.16;2001432;78;22498;-72
2021/05/06 05:36:19;;;;;;;1.36;0.70;;;;;;;5.83;84.35;98736.16;2001281;81;20345;-73
2021/05/06 05:39:33;;;;;;;1.19;0.77;;;;;;;5.85;84.37;98736.16;2001851;81;20316;-72
2021/05/06 05:42:54;;;;;;;2.94;0.93;;;;;;;5.89;84.21;98735.31;2001381;81;20386;-73
2021/05/06 05:54:32;;;;;;;3.71;0.68;;;;;;;5.88;84.15;98724.16;2001153;81;20332;-72
2021/05/06 05:55:57;;;;;;;3.19;0.74;;;;;;;5.93;84.04;98722.50;2000752;81;20320;-73
2021/05/06 05:58:58;;;;;;;1.14;0.60;;;;;;;5.95;83.65;98720.78;2002320;80;20305;-73
2021/05/06 06:02:00;;;;;;;1.83;0.80;;;;;;;5.98;83.75;98715.66;2000046;80;20763;-74
2021/05/06 06:05:02;;;;;;;1.38;0.80;;;;;;;6.04;83.87;98707.91;2001727;81;20346;-74
2021/05/06 06:08:08;;;;;;;3.89;0.85;;;;;;;6.12;84.17;98704.53;2000965;81;20353;-74
2021/05/06 06:11:10;;;;;;;2.40;0.70;;;;;;;6.26;84.15;98705.38;2000381;81;20806;-74
2021/05/06 06:14:12;;;;;;;1.27;0.71;;;;;;;6.38;83.92;98704.56;2004361;80;20332;-74
2021/05/06 06:17:14;;;;;;;2.08;0.80;;;;;;;6.44;83.58;98697.66;2000305;79;21105;-72
2021/05/06 06:20:17;;;;;;;2.60;0.81;;;;;;;6.47;83.47;98705.44;2002294;81;20360;-72
2021/05/06 06:23:19;;;;;;;2.85;0.80;;;;;;;6.44;82.87;98696.81;2001725;81;20819;-72
2021/05/06 06:26:21;;;;;;;1.20;0.75;;;;;;;6.45;83.07;98689.06;2001808;81;20329;-72
2021/05/06 06:29:29;;;;;;;1.36;0.70;;;;;;;6.55;83.12;98697.69;2001611;80;20309;-75
2021/05/06 06:32:31;;;;;;;1.62;0.71;;;;;;;6.65;82.70;98697.69;2000477;78;21624;-73
2021/05/06 06:35:32;;;;;;;2.29;0.93;;;;;;;6.62;82.08;98694.25;2001959;81;20195;-73
2021/05/06 06:38:38;;;;;;;3.69;0.84;;;;;;;6.59;81.92;98696.81;2001449;81;20317;-72
2021/05/06 06:41:40;;;;;;;2.50;0.71;;;;;;;6.58;81.92;98698.53;2002175;81;20316;-73
2021/05/06 06:44:42;;;;;;;1.01;0.89;;;;;;;6.55;81.81;98690.81;1998003;81;20320;-73
2021/05/06 06:47:50;;;;;;;1.48;0.80;;;;;;;6.54;81.70;98690.81;2001014;78;21102;-72
2021/05/06 06:50:52;;;;;;;1.83;0.80;;;;;;;6.55;81.92;98688.22;2002253;81;20366;-70
2021/05/06 06:53:54;;;;;;;1.61;0.71;;;;;;;6.64;82.51;98689.94;2001731;80;20316;-71
2021/05/06 06:56:56;;;;;;;1.41;0.74;;;;;;;6.69;82.24;98688.25;2001671;81;20316;-70
2021/05/06 06:59:57;;;;;;;4.56;1.00;;;;;;;6.69;81.45;98695.97;2002125;81;20638;-70
2021/05/06 07:02:59;;;;;;;2.76;0.90;;;;;;;6.69;81.29;98685.66;2003901;78;20843;-70
2021/05/06 07:06:01;;;;;;;2.06;0.80;;;;;;;6.70;81.45;98686.53;2001960;81;21080;-67
2021/05/06 07:09:04;;;;;;;1.36;0.81;;;;;;;6.69;81.98;98687.38;2001870;81;21070;-71
2021/05/06 07:12:06;;;;;;;2.10;0.93;;;;;;;6.69;81.91;98684.81;2001992;81;20308;-71
2021/05/06 07:15:08;;;;;;;4.11;1.14;;;;;;;6.76;82.45;98682.19;2000464;81;20358;-71
2021/05/06 07:18:10;;;;;;;2.60;1.33;;;;;;;6.90;82.49;98672.75;2001915;78;21023;-71
2021/05/06 07:21:12;;;;;;;2.58;1.25;;;;;;;6.95;81.98;98672.72;2001355;81;20316;-70
2021/05/06 07:24:13;;;;;;;2.63;1.10;;;;;;;6.95;81.55;98671.00;2001738;81;20342;-71
2021/05/06 07:27:20;;;;;;;2.67;1.26;;;;;;;6.95;81.61;98655.50;2004759;80;20336;-71
2021/05/06 07:30:26;;;;;;;1.80;1.20;;;;;;;7.02;81.31;98661.53;2000287;78;21133;-71
2021/05/06 07:33:30;;;;;;;1.70;1.13;;;;;;;7.10;81.44;98659.78;2002668;81;21866;-72
2021/05/06 07:36:36;;;;;;;3.49;1.06;;;;;;;7.12;81.20;98652.03;2001492;81;20344;-72
2021/05/06 07:39:40;;;;;;;3.34;1.17;;;;;;;7.34;81.58;98658.00;2001572;81;20332;-71
2021/05/06 07:42:44;;;;;;;3.49;1.20;;;;;;;7.44;80.61;98655.38;2002005;81;20821;-71
2021/05/06 07:45:48;;;;;;;2.56;1.20;;;;;;;7.63;80.64;98653.59;1998084;80;29093;-70
2021/05/06 07:48:53;;;;;;;2.54;1.16;;;;;;;7.76;80.39;98659.56;2002168;81;20316;-71
2021/05/06 07:51:58;;;;;;;1.36;1.04;;;;;;;7.80;80.25;98650.91;2001486;81;20906;-72
2021/05/06 07:55:03;;;;;;;3.75;1.30;;;;;;;7.85;80.18;98654.31;2001795;81;20388;-71
2021/05/06 07:58:05;;;;;;;2.81;1.23;;;;;;;7.91;80.24;98656.03;2000996;81;20415;-73
2021/05/06 08:01:07;;;;;;;4.86;1.24;;;;;;;7.96;80.13;98641.34;2001015;78;20324;-72
2021/05/06 08:04:09;;;;;;;3.56;1.27;;;;;;;7.95;79.46;98649.97;2001087;81;20924;-71
2021/05/06 08:07:10;;;;;;;1.64;1.14;;;;;;;7.91;79.16;98659.47;2001561;81;20313;-71
2021/05/06 08:10:13;;;;;;;2.34;1.39;;;;;;;7.96;79.68;98649.13;2001209;81;20198;-71
2021/05/06 08:13:15;;;;;;;2.90;1.33;;;;;;;7.93;79.49;98656.88;2001322;81;20336;-72
2021/05/06 08:16:16;;;;;;;3.10;1.20;;;;;;;7.91;79.66;98646.56;2000600;78;22006;-72
2021/05/06 08:19:18;;;;;;;1.26;1.16;;;;;;;7.96;79.90;98644.78;2002322;81;20208;-73
2021/05/06 08:22:20;;;;;;;3.24;1.30;;;;;;;8.01;79.70;98634.41;2001427;81;20818;-72
2021/05/06 08:25:23;;;;;;;3.54;1.51;;;;;;;8.19;79.99;98639.47;2001190;81;20386;-72
2021/05/06 08:28:25;;;;;;;3.04;1.02;;;;;;;8.33;79.45;98648.00;2001073;81;20702;-72
2021/05/06 08:31:27;;;;;;;2.80;1.20;;;;;;;8.38;78.83;98648.84;2000722;78;21281;-71
2021/05/06 08:34:28;;;;;;;2.95;1.20;;;;;;;8.51;79.22;98641.84;2001845;81;21014;-72
2021/05/06 08:37:30;;;;;;;2.24;1.20;;;;;;;8.63;79.37;98639.16;2000769;81;20317;-71
2021/05/06 08:40:32;;;;;;;1.39;1.13;;;;;;;8.72;78.88;98638.22;2004007;80;20199;-72
2021/05/06 08:43:41;;;;;;;3.45;1.27;;;;;;;8.78;76.78;98635.56;2000824;81;20256;-71
2021/05/06 08:47:25;;;;;;;3.79;1.65;;;;;;;8.89;75.68;98630.28;2001924;80;29320;-71
2021/05/06 08:50:08;;;;;;;2.50;1.13;;;;;;;8.91;74.85;98620.78;1999329;81;20291;-72
2021/05/06 08:53:11;;;;;;;2.67;1.40;;;;;;;9.04;74.88;98630.13;2001042;81;20855;-72
2021/05/06 08:56:13;;;;;;;4.24;1.52;;;;;;;9.13;72.98;98632.63;2000845;81;20186;-71
2021/05/06 08:59:14;;;;;;;3.50;0.99;;;;;;;9.17;73.22;98629.13;2001501;81;20350;-72
2021/05/06 09:02:16;;;;;;;1.49;1.02;;;;;;;9.21;73.24;98632.53;2001021;78;23117;-71
2021/05/06 09:05:22;;;;;;;1.29;0.93;;;;;;;9.24;73.73;98628.19;2001140;81;20349;-71
2021/05/06 09:08:36;;;;;;;1.79;0.91;;;;;;;9.28;73.80;98629.00;2000532;81;20225;-72
2021/05/06 09:11:38;;;;;;;3.04;1.23;;;;;;;9.37;73.63;98616.81;2000571;81;20239;-72
2021/05/06 09:14:48;;;;;;;1.56;1.20;;;;;;;9.54;73.92;98607.97;2001000;81;20211;-72
2021/05/06 09:17:50;;;;;;;1.20;1.00;;;;;;;9.83;71.21;98607.56;1999545;78;23274;-72
2021/05/06 09:20:51;;;;;;;3.16;1.19;;;;;;;10.14;71.68;98603.66;1998935;81;20190;-72
2021/05/06 09:24:11;;;;;;;1.70;1.09;;;;;;;10.54;71.00;98590.91;1999199;81;20225;-73
2021/05/06 09:27:13;;;;;;;1.81;1.23;;;;;;;10.81;70.55;98586.97;1998865;81;20229;-73
2021/05/06 09:30:15;;;;;;;1.66;1.01;;;;;;;10.68;70.09;98587.22;1999484;81;20177;-72
2021/05/06 09:33:25;;;;;;;2.76;1.16;;;;;;;10.33;68.00;98591.28;2000986;79;20197;-72
2021/05/06 09:36:27;;;;;;;3.35;1.33;;;;;;;10.04;68.89;98583.91;2000731;81;20205;-73
2021/05/06 09:39:28;;;;;;;2.26;0.89;;;;;;;9.90;69.15;98578.94;2001194;81;20202;-72
2021/05/06 09:42:37;;;;;;;2.03;1.11;;;;;;;9.86;69.56;98572.06;2000825;81;20608;-72
2021/05/06 09:45:39;;;;;;;;;;;;;;;9.87;70.69;98570.34;2000323;78;21599;-72
2021/05/06 09:48:42;;;;;;;1.70;1.09;;;;;;;9.95;70.40;98560.72;2001130;81;20071;-72
2021/05/06 09:51:48;;;;;;;1.61;0.99;;;;;;;10.07;70.53;98541.53;2001310;81;20222;-72
2021/05/06 09:54:52;;;;;;;1.84;1.02;;;;;;;10.27;70.62;98532.56;2000459;81;20186;-72
2021/05/06 09:58:10;;;;;;;3.90;1.16;;;;;;;10.37;70.37;98541.03;2001078;81;20680;-72
2021/05/06 10:01:13;;;;;;;3.13;1.00;;;;;;;10.39;69.92;98549.63;2000292;79;21374;-71
2021/05/06 10:04:19;;;;;;;3.83;1.00;;;;;;;10.54;70.21;98564.09;2001505;81;20215;-73
2021/05/06 10:07:25;;;;;;;4.44;1.00;;;;;;;10.56;70.27;98542.41;2001133;81;20191;-73
2021/05/06 10:10:29;;;;;;;2.63;1.23;;;;;;;10.64;69.94;98510.28;2000299;81;20298;-72
2021/05/06 10:13:31;;;;;;;3.71;1.10;;;;;;;10.60;68.26;98501.72;2001541;81;20267;-73
2021/05/06 10:16:34;;;;;;;3.84;1.35;;;;;;;10.55;68.31;98511.28;1999796;78;20221;-73
2021/05/06 10:19:38;;;;;;;1.71;0.90;;;;;;;10.41;68.33;98523.66;2000738;81;20301;-73
2021/05/06 10:22:41;;;;;;;2.55;1.49;;;;;;;10.25;69.03;98517.91;2000700;81;20958;-73
2021/05/06 10:25:44;;;;;;;3.64;1.26;;;;;;;10.25;69.03;98516.16;2000495;81;20188;-73
2021/05/06 10:28:50;;;;;;;2.86;1.20;;;;;;;10.32;68.82;98509.13;2001085;81;20173;-72
2021/05/06 10:31:52;;;;;;;5.10;1.83;;;;;;;10.31;69.08;98507.41;1999801;79;20185;-72
2021/05/06 10:35:05;;;;;;;4.01;1.27;;;;;;;10.35;68.76;98487.44;2001315;81;20202;-73
2021/05/06 10:38:07;;;;;;;4.06;1.56;;;;;;;10.55;67.61;98485.34;2000669;81;20273;-72
2021/05/06 10:41:34;;;;;;;2.66;1.11;;;;;;;10.73;68.49;98477.19;2000533;81;20293;-72
2021/05/06 10:44:36;;;;;;;2.50;0.95;;;;;;;10.74;66.85;98478.91;2000352;81;20385;-73
2021/05/06 10:47:41;;;;;;;2.91;1.13;;;;;;;10.50;66.40;98476.78;2000262;78;26799;-73
2021/05/06 10:50:42;;;;;;;7.32;1.04;;;;;;;10.37;68.41;98468.38;2000449;81;21494;-72
2021/05/06 10:53:44;;;;;;;1.51;1.00;;;;;;;10.34;68.04;98464.97;2000043;81;20202;-74
2021/05/06 10:56:46;;;;;;;2.56;0.80;;;;;;;10.33;69.16;98451.16;2001489;81;20229;-72
2021/05/06 10:59:48;;;;;;;2.40;0.95;;;;;;;10.27;70.31;98469.44;2001455;81;20196;-73
2021/05/06 11:02:53;;;;;;;1.74;0.90;;;;;;;10.15;69.42;98469.63;2002791;78;23462;-73
2021/05/06 11:05:56;;;;;;;2.00;1.11;;;;;;;9.96;69.86;98462.16;2002505;81;20302;-73
2021/05/06 11:08:58;;;;;;;2.17;1.11;;;;;;;9.87;69.46;98456.25;2001898;81;20720;-73
2021/05/06 11:12:15;;;;;;;2.72;1.00;;;;;;;9.84;70.66;98459.75;2002018;81;20182;-73
2021/05/06 11:15:20;;;;;;;5.35;1.01;;;;;;;9.86;72.82;98450.22;2001112;81;20213;-73
2021/05/06 11:18:44;;;;;;;2.84;1.11;;;;;;;9.82;71.91;98433.00;2002696;80;20197;-73
2021/05/06 11:21:48;;;;;;;3.21;1.25;;;;;;;9.79;72.67;98429.59;2001550;81;20199;-74
2021/05/06 11:24:49;;;;;;;2.30;1.00;;;;;;;9.65;71.76;98430.69;2001896;81;20213;-74
2021/05/06 11:27:58;;;;;;;1.54;1.00;;;;;;;9.60;72.83;98419.53;2002050;81;20979;-73
2021/05/06 11:31:00;;;;;;;2.30;1.05;;;;;;;9.67;74.70;98409.91;2000080;79;22516;-74
2021/05/06 11:34:38;;;;;;;5.60;1.36;;;;;;;9.76;75.01;98411.53;2001597;81;20186;-72
2021/05/06 11:37:51;;;;;;;2.46;0.94;;;;;;;9.85;74.44;98400.97;2001409;81;20239;-74
2021/05/06 11:40:59;;;;;;;2.04;0.90;;;;;;;9.84;72.68;98394.94;2001788;81;20190;-73
2021/05/06 11:44:07;;;;;;;1.08;0.70;;;;;;;9.86;73.31;98389.72;2001464;81;20417;-73
2021/05/06 11:47:08;;;;;;;1.52;0.70;;;;;;;9.81;72.51;98383.78;2000454;78;20917;-73
2021/05/06 11:50:32;;;;;;;2.94;0.94;;;;;;;9.71;72.38;98375.31;2001493;81;20213;-74
2021/05/06 11:53:38;;;;;;;2.08;0.70;;;;;;;9.47;72.35;98370.53;2001336;81;20196;-73
2021/05/06 11:56:43;;;;;;;2.20;0.70;;;;;;;9.35;73.52;98358.66;2001998;81;20706;-73
2021/05/06 11:59:45;;;;;;;3.34;1.06;;;;;;;9.12;73.52;98356.41;2001338;80;20924;-73
2021/05/06 12:02:54;;;;;;;1.76;0.70;;;;;;;9.02;74.27;98347.06;2000255;78;20198;-75
2021/05/06 12:06:00;;;;;;;2.13;0.80;;;;;;;9.00;74.94;98359.19;2001413;81;20199;-75
2021/05/06 12:09:05;;;;;;;1.64;0.80;;;;;;;8.96;75.11;98352.31;2001437;81;20186;-76
2021/05/06 12:12:07;;;;;;;1.16;0.68;;;;;;;8.92;75.69;98367.03;2002125;81;20215;-75
2021/05/06 12:15:09;;;;;;;1.46;0.64;;;;;;;8.85;75.98;98360.25;2000691;81;20203;-74
2021/05/06 12:18:23;;;;;;;0.80;0.60;;;;;;;8.82;76.33;98352.53;2001176;78;25775;-74
2021/05/06 12:21:48;;;;;;;1.23;0.70;;;;;;;8.80;75.90;98346.53;2001460;81;20206;-75
2021/05/06 12:24:54;;;;;;;0.56;0.55;;;;;;;8.74;75.56;98339.69;2001218;81;20189;-75
2021/05/06 12:27:55;;;;;;;2.36;0.60;;;;;;;8.72;75.41;98325.06;2004812;80;20190;-74
2021/05/06 12:30:59;;;;;;;0.73;0.50;;;;;;;8.73;75.08;98306.06;2000659;78;20746;-75
2021/05/06 12:34:14;;;;;;;2.42;0.55;;;;;;;8.79;75.35;98300.78;2001968;81;20212;-75
2021/05/06 12:37:16;;;;;;;1.08;0.57;;;;;;;8.84;74.86;98306.78;2001835;81;20198;-75
2021/05/06 12:40:18;;;;;;;1.26;0.60;;;;;;;8.94;75.72;98291.94;2001057;81;21236;-74
2021/05/06 12:43:30;;;;;;;1.23;0.60;;;;;;;9.05;76.31;98290.06;2001219;81;20644;-74
2021/05/06 12:46:31;;;;;;;;;;;;;;;9.14;75.87;98302.84;2000552;78;24620;-76
2021/05/06 12:49:33;;;;;;;1.01;0.40;;;;;;;9.17;75.52;98291.59;2001182;81;20046;-73
2021/05/06 12:52:40;;;;;;;1.56;0.50;;;;;;;9.19;74.71;98285.50;2001243;81;20663;-74
2021/05/06 12:55:42;;;;;;;1.50;0.50;;;;;;;9.25;74.95;98272.44;2001258;81;20724;-74
2021/05/06 12:58:44;;;;;;;1.24;0.50;;;;;;;9.31;75.46;98261.13;2001320;81;20588;-73
2021/05/06 13:01:45;;;;;;;1.35;0.50;;;;;;;9.36;74.94;98246.38;2000552;78;22319;-73
2021/05/06 13:04:54;;;;;;;0.90;0.50;;;;;;;9.43;75.27;98239.34;2001042;81;20205;-73
2021/05/06 13:07:56;;;;;;;0.85;0.50;;;;;;;9.38;74.22;98254.97;2001131;81;20203;-74
2021/05/06 13:11:02;;;;;;;0.47;0.47;;;;;;;9.28;74.24;98256.84;2001106;81;20639;-73
2021/05/06 13:14:05;;;;;;;1.44;0.52;;;;;;;9.18;74.13;98251.88;2001984;81;20266;-74
2021/05/06 13:17:21;;;;;;;1.48;0.50;;;;;;;9.12;75.09;98245.03;2000005;80;20649;-74
2021/05/06 13:20:27;;;;;;;0.64;0.44;;;;;;;9.08;75.60;98228.72;2000602;80;20186;-74
2021/05/06 13:23:33;;;;;;;0.45;0.40;;;;;;;9.03;76.93;98220.19;2001234;81;20624;-74
2021/05/06 13:26:38;;;;;;;3.91;0.65;;;;;;;9.06;76.65;98217.53;2000770;81;20340;-75
2021/05/06 13:29:58;;;;;;;1.52;0.56;;;;;;;9.06;77.21;98222.72;2001296;81;20198;-76
2021/05/06 13:33:12;;;;;;;0.95;0.44;;;;;;;9.07;77.71;98208.03;1999396;78;20165;-76
2021/05/06 13:36:29;;;;;;;0.60;0.40;;;;;;;9.25;78.18;98192.16;1999524;81;20244;-76
2021/05/06 13:39:35;;;;;;;0.89;0.55;;;;;;;9.41;78.48;98172.00;1999006;81;20178;-76
2021/05/06 13:42:37;;;;;;;1.70;0.41;;;;;;;9.52;77.48;98169.22;1998716;81;20808;-75
2021/05/06 13:45:39;;;;;;;0.66;0.50;;;;;;;9.61;77.47;98166.41;2000007;80;22939;-75
2021/05/06 13:48:40;;;;;;;0.40;0.40;;;;;;;9.57;77.56;98163.06;2001463;81;20182;-74
2021/05/06 13:51:42;;;;;;;0.89;0.50;;;;;;;9.56;77.23;98157.91;2000630;81;20459;-74
2021/05/06 13:54:44;;;;;;;1.39;0.50;;;;;;;9.67;77.14;98154.19;2000694;81;20201;-73
2021/05/06 13:57:46;;;;;;;1.19;0.43;;;;;;;9.67;77.08;98149.00;2000432;81;21103;-74
2021/05/06 14:00:47;;;;;;;0.75;0.50;;;;;;;9.60;76.86;98155.22;2000146;78;22802;-73
2021/05/06 14:03:49;;;;;;;1.19;0.60;;;;;;;9.56;76.47;98143.22;2001068;81;20182;-74
2021/05/06 14:06:51;;;;;;;2.36;0.60;;;;;;;9.46;75.51;98140.81;2000328;81;20214;-72
2021/05/06 14:09:54;;;;;;;1.05;0.70;;;;;;;9.30;75.39;98133.34;2000692;81;20950;-73
2021/05/06 14:12:56;;;;;;;0.70;0.61;;;;;;;9.16;76.23;98126.75;2000301;81;20215;-76
2021/05/06 14:15:59;;;;;;;2.64;0.60;;;;;;;9.07;77.48;98109.63;1999699;78;21261;-76
2021/05/06 14:19:02;;;;;;;1.27;0.56;;;;;;;9.11;78.25;98108.69;2000513;81;20600;-76
2021/05/06 14:22:04;;;;;;;0.56;0.34;;;;;;;9.16;78.65;98098.25;2000954;81;20592;-75
2021/05/06 14:25:06;;;;;;;1.54;1.40;;;;;;;9.13;78.70;98101.75;2001159;81;20209;-77
2021/05/06 14:28:08;;;;;;;2.21;1.29;;;;;;;9.07;78.48;98094.09;1999753;81;20181;-75
2021/05/06 14:31:10;;;;;;;1.02;0.80;;;;;;;8.98;79.22;98094.28;2000091;79;21590;-75
2021/05/06 14:34:11;;;;;;;0.63;0.50;;;;;;;8.94;79.47;98083.13;2002281;81;20195;-76
2021/05/06 14:37:13;;;;;;;1.88;1.40;;;;;;;8.92;80.10;98081.44;1996405;81;20803;-77
2021/05/06 14:40:15;;;;;;;0.66;0.66;;;;;;;8.93;80.09;98081.41;2002022;81;20271;-76
2021/05/06 14:43:17;;;;;;;1.09;0.51;;;;;;;8.88;80.32;98078.06;2001774;81;20185;-76
2021/05/06 14:46:21;;;;;;;0.95;0.88;;;;;;;8.80;81.02;98067.00;2000784;78;22731;-76
2021/05/06 14:49:23;;;;;;;0.86;0.60;;;;;;;8.79;81.45;98066.13;2002260;81;20206;-77
2021/05/06 14:52:24;;;;;;;0.54;0.50;;;;;;;8.81;81.79;98058.38;2002073;81;20201;-76
2021/05/06 14:55:27;;;;;;;0.50;0.50;;;;;;;8.76;81.55;98055.84;2002802;81;20186;-76
2021/05/06 14:58:30;;;;;;;7.36;3.75;;;;;;;8.77;81.81;98060.13;2006353;80;20215;-79
2021/05/06 15:01:33;;;;;;;2.70;2.45;;;;;;;8.74;81.82;98065.38;2002809;78;24033;-79
2021/05/06 15:04:34;;;;;;;2.06;0.98;;;;;;;8.70;81.76;98044.75;2008275;81;20832;-80
2021/05/06 15:07:36;;;;;;;0.77;0.70;;;;;;;8.71;82.29;98023.19;2011750;80;20170;-83
2021/05/06 15:10:38;;;;;;;2.19;0.80;;;;;;;8.75;82.67;97970.47;2004808;81;20220;-81
2021/05/06 15:13:39;;;;;;;1.44;0.77;;;;;;;8.86;82.57;97911.59;2002240;81;20165;-79
2021/05/06 15:16:41;;;;;;;3.64;1.26;;;;;;;8.89;82.89;97933.97;2001466;79;22016;-79
2021/05/06 15:19:49;;;;;;;2.45;1.38;;;;;;;8.99;82.77;97925.13;2001735;81;20186;-80
2021/05/06 15:22:51;;;;;;;2.66;1.17;;;;;;;9.12;82.89;97936.91;2001883;81;20800;-76
2021/05/06 15:25:54;;;;;;;3.16;1.08;;;;;;;9.17;82.43;97958.41;2002815;81;20173;-78
2021/05/06 15:28:55;;;;;;;1.98;0.76;;;;;;;9.19;82.19;97974.75;2002347;81;20247;-80
2021/05/06 15:31:57;;;;;;;0.95;0.70;;;;;;;9.18;81.89;97964.41;2001248;78;21975;-75
2021/05/06 15:35:01;;;;;;;1.73;0.90;;;;;;;9.14;81.92;97957.59;2001456;81;20901;-75
2021/05/06 15:38:03;;;;;;;0.80;0.76;;;;;;;9.12;82.15;97972.31;2001588;81;20680;-78
2021/05/06 15:41:05;;;;;;;0.96;0.79;;;;;;;9.06;82.31;97971.56;2000919;81;20198;-80
2021/05/06 15:44:07;;;;;;;1.40;0.68;;;;;;;9.03;82.45;97974.22;2002973;81;20194;-76
2021/05/06 15:47:09;;;;;;;0.84;0.80;;;;;;;8.96;83.29;97964.00;2001052;78;20185;-77
2021/05/06 15:50:13;;;;;;;0.85;0.85;;;;;;;8.93;83.66;97948.53;2000991;81;20612;-77
2021/05/06 15:53:14;;;;;;;2.39;1.00;;;;;;;8.96;83.76;97946.75;2001274;81;21215;-78
2021/05/06 15:56:16;;;;;;;1.59;1.02;;;;;;;9.00;83.64;97937.19;2001604;81;20731;-78
2021/05/06 15:59:18;;;;;;;2.46;1.16;;;;;;;8.96;83.79;97936.38;2004043;81;20243;-78
2021/05/06 16:02:21;;;;;;;1.08;0.90;;;;;;;8.86;83.88;97942.66;2001162;78;20974;-77
2021/05/06 16:05:28;;;;;;;1.90;0.95;;;;;;;8.76;84.07;97951.47;2000840;81;20214;-77
2021/05/06 16:08:30;;;;;;;1.09;0.82;;;;;;;8.75;84.42;97942.88;2002132;81;20181;-77
2021/05/06 16:11:32;;;;;;;1.24;0.93;;;;;;;8.77;85.03;97928.16;2001458;80;20305;-77
2021/05/06 16:14:34;;;;;;;1.69;1.13;;;;;;;8.87;85.47;97908.13;2001285;81;20219;-77
2021/05/06 16:17:36;;;;;;;1.94;1.10;;;;;;;8.97;85.61;97901.00;2000486;78;22640;-77
2021/05/06 16:20:41;;;;;;;1.91;0.90;;;;;;;9.02;85.39;97897.44;2001135;81;20317;-77
2021/05/06 16:23:42;;;;;;;1.45;1.10;;;;;;;9.07;85.24;97905.09;2001819;81;20205;-77
2021/05/06 16:26:44;;;;;;;1.38;1.00;;;;;;;9.09;84.92;97901.56;2001316;81;20203;-77
2021/05/06 16:29:46;;;;;;;1.74;1.01;;;;;;;9.12;84.93;97894.63;2001251;81;20190;-77
2021/05/06 16:32:49;;;;;;;1.80;0.80;;;;;;;9.15;84.89;97892.81;2000386;78;20189;-76
2021/05/06 16:36:41;;;;;;;2.38;1.04;;;;;;;9.15;85.00;97889.38;2001390;81;20243;-76
2021/05/06 16:39:28;;;;;;;1.10;0.99;;;;;;;9.17;85.06;97890.22;1999645;81;20174;-76
2021/05/06 16:45:52;;;;;;;0.91;0.84;;;;;;;9.05;85.32;97889.59;1994526;78;52889;-77
2021/05/06 16:48:53;;;;;;;1.10;0.90;;;;;;;9.11;85.77;97886.00;2001475;81;20227;-78
2021/05/06 16:51:56;;;;;;;0.80;0.80;;;;;;;9.08;85.87;97888.66;2002718;80;20209;-77
2021/05/06 16:54:58;;;;;;;1.45;0.79;;;;;;;9.07;85.96;97892.16;2001923;81;20162;-78
2021/05/06 16:57:59;;;;;;;1.21;0.89;;;;;;;9.10;85.89;97892.06;2001493;81;20487;-78
2021/05/06 17:01:01;;;;;;;1.06;0.88;;;;;;;9.11;86.08;97895.50;1999872;78;24061;-72
2021/05/06 17:04:03;;;;;;;2.89;0.80;;;;;;;9.14;85.97;97895.44;2001792;81;20228;-73
2021/05/06 17:07:06;;;;;;;1.02;0.90;;;;;;;9.15;86.00;97894.56;2005124;80;20400;-72
2021/05/06 17:10:08;;;;;;;2.86;1.11;;;;;;;9.18;85.92;97895.34;2000635;81;20375;-73
2021/05/06 17:13:11;;;;;;;1.61;1.11;;;;;;;9.18;85.98;97910.03;2001210;81;20306;-73
2021/05/06 17:16:34;;;;;;;4.35;1.05;;;;;;;9.15;86.13;97915.25;1996856;78;20249;-72
2021/05/06 17:19:36;;;;;;;1.50;1.40;;;;;;;9.16;86.05;97915.25;2000835;81;20987;-73
2021/05/06 17:22:40;;;;;;;1.59;1.33;;;;;;;9.15;86.13;97910.94;2001042;81;20527;-74
2021/05/06 17:25:42;;;;;;;2.17;1.54;;;;;;;9.15;86.35;97917.84;2000811;81;20190;-73